Here is the Quick Look data you requested

The Data originates at the National Weather Service, and is made available here by the UAlbany Department of Atmospheric and Environmental Sciences

Surface Observations

KOFP 151954Z AUTO 21009G14KT 10SM CLR 37/19 A2991 RMK AO2 SLP126 T03670194=
KOFP 152054Z AUTO 20011KT 10SM CLR 36/19 A2988 RMK AO2 SLP117 T03610194 58022=
KOFP 152154Z AUTO 20011G21KT 10SM CLR 36/21 A2989 RMK AO2 SLP117 T03560211=
KOFP 152254Z AUTO 18007KT 10SM CLR 34/23 A2989 RMK AO2 SLP117 T03440228=
KOFP 152354Z AUTO 20008KT 10SM CLR 33/22 A2988 RMK AO2 SLP116 T03330217 10372
 20333 58001=
KOFP 160054Z AUTO VRB03KT 10SM CLR 31/22 A2990 RMK AO2 SLP121 T03110222=
KOFP 160154Z AUTO 19005KT 10SM CLR 31/23 A2990 RMK AO2 SLP122 T03060228=
KOFP 160254Z AUTO 20006KT 9SM CLR 31/23 A2989 RMK AO2 SLP120 T03060233 50004=
KOFP 160354Z AUTO 22008KT 9SM CLR 31/23 A2988 RMK AO2 SLP116 T03060233=
KOFP 160454Z AUTO 21008KT 9SM CLR 30/22 A2988 RMK AO2 SLP114 T03000222
 403720256=
KOFP 160554Z AUTO 20008KT 9SM CLR 29/22 A2987 RMK AO2 SLP112 T02940222 10333
 20294 56007=
KOFP 160654Z AUTO 22007KT 9SM CLR 29/22 A2987 RMK AO2 SLP113 T02890222=
KOFP 160754Z AUTO 22008KT 9SM CLR 28/22 A2988 RMK AO2 SLP116 T02780222=
KOFP 160854Z AUTO 22007KT 9SM CLR 27/23 A2989 RMK AO2 SLP120 T02720228 53008=
KOFP 160954Z AUTO 22006KT 9SM CLR 27/23 A2989 RMK AO2 SLP119 T02670228=
KOFP 161054Z AUTO 21004KT 7SM CLR 27/23 A2990 RMK AO2 SLP122 T02670228=
KOFP 161154Z AUTO 23007KT 7SM CLR 28/23 A2992 RMK AO2 SLP128 T02780228 10294
 20261 53008=
KOFP 161254Z AUTO 26006KT 8SM CLR 29/23 A2992 RMK AO2 SLP130 T02940228=
KOFP 161354Z AUTO 23004KT 8SM CLR 31/23 A2991 RMK AO2 SLP126 T03110228=
KOFP 161454Z AUTO 25004KT 8SM CLR 34/23 A2990 RMK AO2 SLP124 T03390233 58004=
KOFP 161554Z AUTO 27006KT 9SM CLR 36/23 A2991 RMK AO2 SLP124 T03560233=
KOFP 161654Z AUTO 25008KT 9SM CLR 37/22 A2989 RMK AO2 SLP120 T03670222=
KOFP 161754Z AUTO 19009G15KT 160V220 9SM SCT060 37/22 A2988 RMK AO2 SLP114
 T03670217 10372 20278 58010=
KOFP 161854Z AUTO 21013G19KT 9SM CLR 37/22 A2985 RMK AO2 SLP107 T03720217 $=
KOFP 161954Z AUTO 21011G18KT 9SM CLR 37/21 A2984 RMK AO2 SLP102 T03720211=

Decoded Surface Observations


The weather observed at RICHMOND/HANOVER, VA (KOFP) at 03:54 PM EDT was:
  The skies were clear.
  Temperature: 99F ( 37C)  Dewpoint:  66F ( 19C)  Relative Humidity:  35%
  Winds from the SW (210 degs) at 10 mph.
  Pressure: 1012.6 millibars.  Altimeter:29.91 inches of mercury.
  The prevailing visibility was 10 miles.

The weather observed at RICHMOND/HANOVER, VA (KOFP) at 04:54 PM EDT was:
  The skies were clear.
  Temperature: 97F ( 36C)  Dewpoint:  67F ( 19C)  Relative Humidity:  38%
  Winds from the SSW(200 degs) at 13 mph.
  Pressure: 1011.7 millibars.  Altimeter:29.88 inches of mercury.
  The prevailing visibility was 10 miles.

The weather observed at RICHMOND/HANOVER, VA (KOFP) at 05:54 PM EDT was:
  The skies were clear.
  Temperature: 97F ( 36C)  Dewpoint:  70F ( 21C)  Relative Humidity:  42%
  Winds from the SSW(200 degs) at 13 mph.
  Pressure: 1011.7 millibars.  Altimeter:29.89 inches of mercury.
  The prevailing visibility was 10 miles.

The weather observed at RICHMOND/HANOVER, VA (KOFP) at 06:54 PM EDT was:
  The skies were clear.
  Temperature: 93F ( 34C)  Dewpoint:  73F ( 23C)  Relative Humidity:  53%
  Winds from the S  (180 degs) at  8 mph.
  Pressure: 1011.7 millibars.  Altimeter:29.89 inches of mercury.
  The prevailing visibility was 10 miles.

The weather observed at RICHMOND/HANOVER, VA (KOFP) at 07:54 PM EDT was:
  The skies were clear.
  Temperature: 92F ( 33C)  Dewpoint:  71F ( 22C)  Relative Humidity:  51%
  Winds from the SSW(200 degs) at  9 mph.
  Pressure: 1011.6 millibars.  Altimeter:29.88 inches of mercury.
  The prevailing visibility was 10 miles.
  The maximum temperature in the past 6 hours was  99F.
  The minimum temperature in the past 6 hours was  92F.

The weather observed at RICHMOND/HANOVER, VA (KOFP) at 08:54 PM EDT was:
  The skies were clear.
  Temperature: 88F ( 31C)  Dewpoint:  72F ( 22C)  Relative Humidity:  59%
  Winds from the VRB(VRB degs) at  3 mph.
  Pressure: 1012.1 millibars.  Altimeter:29.90 inches of mercury.
  The prevailing visibility was 10 miles.

The weather observed at RICHMOND/HANOVER, VA (KOFP) at 09:54 PM EDT was:
  The skies were clear.
  Temperature: 88F ( 31C)  Dewpoint:  73F ( 23C)  Relative Humidity:  62%
  Winds from the S  (190 degs) at  6 mph.
  Pressure: 1012.2 millibars.  Altimeter:29.90 inches of mercury.
  The prevailing visibility was 10 miles.

The weather observed at RICHMOND/HANOVER, VA (KOFP) at 10:54 PM EDT was:
  The skies were clear.
  Temperature: 87F ( 31C)  Dewpoint:  74F ( 23C)  Relative Humidity:  65%
  Winds from the SSW(200 degs) at  7 mph.
  Pressure: 1012.0 millibars.  Altimeter:29.89 inches of mercury.
  The prevailing visibility was 9 miles.

The weather observed at RICHMOND/HANOVER, VA (KOFP) at 11:54 PM EDT was:
  The skies were clear.
  Temperature: 88F ( 31C)  Dewpoint:  73F ( 23C)  Relative Humidity:  62%
  Winds from the SW (220 degs) at  9 mph.
  Pressure: 1011.6 millibars.  Altimeter:29.88 inches of mercury.
  The prevailing visibility was 9 miles.

The weather observed at RICHMOND/HANOVER, VA (KOFP) at 12:54 AM EDT was:
  The skies were clear.
  Temperature: 86F ( 30C)  Dewpoint:  72F ( 22C)  Relative Humidity:  63%
  Winds from the SW (210 degs) at  9 mph.
  Pressure: 1011.4 millibars.  Altimeter:29.88 inches of mercury.
  The prevailing visibility was 9 miles.

The weather observed at RICHMOND/HANOVER, VA (KOFP) at 01:54 AM EDT was:
  The skies were clear.
  Temperature: 85F ( 29C)  Dewpoint:  72F ( 22C)  Relative Humidity:  65%
  Winds from the SSW(200 degs) at  9 mph.
  Pressure: 1011.2 millibars.  Altimeter:29.87 inches of mercury.
  The prevailing visibility was 9 miles.
  The maximum temperature in the past 6 hours was  92F.
  The minimum temperature in the past 6 hours was  85F.

The weather observed at RICHMOND/HANOVER, VA (KOFP) at 02:54 AM EDT was:
  The skies were clear.
  Temperature: 84F ( 29C)  Dewpoint:  72F ( 22C)  Relative Humidity:  66%
  Winds from the SW (220 degs) at  8 mph.
  Pressure: 1011.3 millibars.  Altimeter:29.87 inches of mercury.
  The prevailing visibility was 9 miles.

The weather observed at RICHMOND/HANOVER, VA (KOFP) at 03:54 AM EDT was:
  The skies were clear.
  Temperature: 82F ( 28C)  Dewpoint:  72F ( 22C)  Relative Humidity:  70%
  Winds from the SW (220 degs) at  9 mph.
  Pressure: 1011.6 millibars.  Altimeter:29.88 inches of mercury.
  The prevailing visibility was 9 miles.

The weather observed at RICHMOND/HANOVER, VA (KOFP) at 04:54 AM EDT was:
  The skies were clear.
  Temperature: 81F ( 27C)  Dewpoint:  73F ( 23C)  Relative Humidity:  77%
  Winds from the SW (220 degs) at  8 mph.
  Pressure: 1012.0 millibars.  Altimeter:29.89 inches of mercury.
  The prevailing visibility was 9 miles.

The weather observed at RICHMOND/HANOVER, VA (KOFP) at 05:54 AM EDT was:
  The skies were clear.
  Temperature: 81F ( 27C)  Dewpoint:  73F ( 23C)  Relative Humidity:  79%
  Winds from the SW (220 degs) at  7 mph.
  Pressure: 1011.9 millibars.  Altimeter:29.89 inches of mercury.
  The prevailing visibility was 9 miles.

The weather observed at RICHMOND/HANOVER, VA (KOFP) at 06:54 AM EDT was:
  The skies were clear.
  Temperature: 81F ( 27C)  Dewpoint:  73F ( 23C)  Relative Humidity:  79%
  Winds from the SW (210 degs) at  5 mph.
  Pressure: 1012.2 millibars.  Altimeter:29.90 inches of mercury.
  The prevailing visibility was 7 miles.

The weather observed at RICHMOND/HANOVER, VA (KOFP) at 07:54 AM EDT was:
  The skies were clear.
  Temperature: 82F ( 28C)  Dewpoint:  73F ( 23C)  Relative Humidity:  74%
  Winds from the SW (230 degs) at  8 mph.
  Pressure: 1012.8 millibars.  Altimeter:29.92 inches of mercury.
  The prevailing visibility was 7 miles.
  The maximum temperature in the past 6 hours was  85F.
  The minimum temperature in the past 6 hours was  79F.

The weather observed at RICHMOND/HANOVER, VA (KOFP) at 08:54 AM EDT was:
  The skies were clear.
  Temperature: 84F ( 29C)  Dewpoint:  73F ( 23C)  Relative Humidity:  70%
  Winds from the W  (260 degs) at  7 mph.
  Pressure: 1013.0 millibars.  Altimeter:29.92 inches of mercury.
  The prevailing visibility was 8 miles.

The weather observed at RICHMOND/HANOVER, VA (KOFP) at 09:54 AM EDT was:
  The skies were clear.
  Temperature: 88F ( 31C)  Dewpoint:  73F ( 23C)  Relative Humidity:  62%
  Winds from the SW (230 degs) at  5 mph.
  Pressure: 1012.6 millibars.  Altimeter:29.91 inches of mercury.
  The prevailing visibility was 8 miles.

The weather observed at RICHMOND/HANOVER, VA (KOFP) at 10:54 AM EDT was:
  The skies were clear.
  Temperature: 93F ( 34C)  Dewpoint:  74F ( 23C)  Relative Humidity:  54%
  Winds from the WSW(250 degs) at  5 mph.
  Pressure: 1012.4 millibars.  Altimeter:29.90 inches of mercury.
  The prevailing visibility was 8 miles.

The weather observed at RICHMOND/HANOVER, VA (KOFP) at 11:54 AM EDT was:
  The skies were clear.
  Temperature: 97F ( 36C)  Dewpoint:  73F ( 23C)  Relative Humidity:  47%
  Winds from the W  (270 degs) at  7 mph.
  Pressure: 1012.4 millibars.  Altimeter:29.91 inches of mercury.
  The prevailing visibility was 9 miles.

The weather observed at RICHMOND/HANOVER, VA (KOFP) at 12:54 PM EDT was:
  The skies were clear.
  Temperature: 99F ( 37C)  Dewpoint:  72F ( 22C)  Relative Humidity:  42%
  Winds from the WSW(250 degs) at  9 mph.
  Pressure: 1012.0 millibars.  Altimeter:29.89 inches of mercury.
  The prevailing visibility was 9 miles.

The weather observed at RICHMOND/HANOVER, VA (KOFP) at 01:54 PM EDT was:
  The skies were partly cloudy.
  Temperature: 98F ( 37C)  Dewpoint:  71F ( 22C)  Relative Humidity:  42%
  Winds from the S  (190 degs) at 10 mph.
  Pressure: 1011.4 millibars.  Altimeter:29.88 inches of mercury.
  The prevailing visibility was 9 miles.
  The maximum temperature in the past 6 hours was  99F.
  The minimum temperature in the past 6 hours was  82F.

The weather observed at RICHMOND/HANOVER, VA (KOFP) at 02:54 PM EDT was:
  The skies were clear.
  Temperature: 99F ( 37C)  Dewpoint:  71F ( 22C)  Relative Humidity:  41%
  Winds from the SW (210 degs) at 15 mph.
  Pressure: 1010.7 millibars.  Altimeter:29.85 inches of mercury.
  The prevailing visibility was 9 miles.

The weather observed at RICHMOND/HANOVER, VA (KOFP) at 03:54 PM EDT was:
  The skies were clear.
  Temperature: 99F ( 37C)  Dewpoint:  70F ( 21C)  Relative Humidity:  40%
  Winds from the SW (210 degs) at 13 mph.
  Pressure: 1010.2 millibars.  Altimeter:29.84 inches of mercury.
  The prevailing visibility was 9 miles.

Short Range Forecast

Sorry no data found for ofp
Make sure ofp is a valid station
You might need to specify a nearby major city
Try Again

Zone Forecast

Sorry no data found for ofp
Make sure ofp is a valid station
You might need to specify a nearby major city
Try Again

State Forecast

Sorry no data found for ofp
Make sure ofp is a valid station
You might need to specify a nearby major city
Try Again

State Forecast Discussion

Sorry no data found for ofp
Make sure ofp is a valid station
You might need to specify a nearby major city
Try Again

GFS Short-Range Model Output Statistics (MOS) Forecast

KOFP   GFS MOS GUIDANCE    7/16/2024  1200 UTC
DT /JULY 16/JULY 17                /JULY 18                /JULY 19
HR   18 21 00 03 06 09 12 15 18 21 00 03 06 09 12 15 18 21 00 06 12
N/X                    77          97          73          87    67
TMP 100100 92 85 82 79 82 91 95 94 87 80 77 75 76 79 83 83 76 71 72
DPT  67 66 69 72 72 71 73 71 70 71 73 73 72 71 71 70 69 69 70 67 66
CLD  FW FW CL SC FW SC SC FW BK BK OV OV OV OV OV OV OV OV OV BK BK
WDR  21 22 21 20 21 21 21 22 22 21 23 21 24 23 32 36 01 02 00 27 33
WSP  10 12 08 05 04 04 07 09 12 12 10 05 05 02 02 03 04 03 00 01 03
P06         0     7     9     3    50    41    22    29    32 23  9
P12                    12          54          57          49    27
Q06         0     0     0     0     2     1     0     0     0  0  0
Q12                     0           1           1           1     0
T06     24/22 17/11  4/ 1  3/ 4 47/32 23/ 9  9/ 1 11/ 2 21/15  3/ 0
T12           35/28        4/ 6       55/33       15/ 4    26/15
CIG   8  8  8  8  8  8  8  8  8  8  7  6  8  5  6  5  6  7  8  7  8
VIS   7  7  7  7  7  7  7  7  7  7  7  7  2  6  7  7  7  7  7  5  7
OBV   N  N  N  N  N  N  N  N  N  N  N  N BR HZ  N  N  N  N  N BR  N

GFS Long-Range Model Output Statistics (MOS) Forecast

KOFP   GFSX MOS GUIDANCE   7/16/2024  1200 UTC
FHR  24  36| 48  60| 72  84| 96 108|120 132|144 156|168 180|192
     WED 17| THU 18| FRI 19| SAT 20| SUN 21| MON 22| TUE 23|WED CLIMO
N/X  77  97| 73  87| 67  87| 70  88| 70  91| 71  90| 70  91| 71 66 88
TMP  82  87| 76  76| 72  78| 76  79| 76  81| 76  79| 74  81| 75
DPT  73  73| 71  70| 66  66| 68  70| 70  72| 71  70| 68  71| 69
CLD  PC  OV| OV  OV| OV  PC| OV  OV| OV  OV| OV  OV| OV  PC| PC
WND   8  12| 10   4|  3   4|  3   5|  2   5|  3   5|  4   9|  6
P12  12  54| 57  49| 27  17| 12  35| 27  42| 34  39| 32  36| 28999999
P24      54|     69|     34|     35|     51|     56|     58|      999
Q12   0   1|  1   1|  0   0|  0   0|  0   2|  1   3|       |
Q24       1|      2|      0|      0|      1|      3|       |
T12  17  47| 25  26| 19  12|  6  23| 17  36| 25  34| 23  31| 18
T24        | 47    | 31    | 12    | 29    | 47    | 40    | 33

NGM Model Output Statistics (MOS) Forecast

Climatological Summary

Sorry no data found for ofp
Make sure ofp is a valid station
You might need to specify a nearby major city
Try Again

Watch and Warning Statment

Sorry no data found for ofp
Make sure ofp is a valid station
You might need to specify a nearby major city
or it could be THERE ARE NO WATCHES OR WARNINGS for ofp
Try Again

Park/Ski Recreation Report/Forecast

Sorry no data found for ofp
Make sure ofp is a valid station
You might need to specify a nearby major city
Try Again